Dewey, South Dakota
Current Conditions -  °F | °C
As of 8:53 AM on Wednesday 22 Oct 2014 (Local Time) from KCUT Reporting Station
Overcast Overcast  
Wind Chill: 50°   Ceiling: 11000
Heat Index: 50°   Visibility: 10mi
Dew Point: 29°   Wind: 0mph
Humidity: 44%   Direction: NA
Pressure: 30.03"   Gusts: NA
Location:  43.1994°N, 103.759°W
Report Text: KCUT 221453Z AUTO 00000KT 10SM OVC110 10/M02 A3003 RMK AO2 SLP124 T01001017 53016
Loading
Personal Weather Stations






























Interactive Weather Map
Tropical Storm Tracking
New forecast layout! Learn more

10-Day Weather Forecast

Advertisements
Track Severe Weather on mobile